Time;durP1;ratioP1;P1;durP2;ratioP2;P2;SDS_P1;SDS_P2;PMS_P1;PMS_P2;Temp;Humidity;BMP_temperature;BMP_pressure;BME280_temperature;BME280_humidity;BME280_pressure;Samples;Min_cycle;Max_cycle;Signal;HPM_P1;HPM_P2
2022/11/06 00:01:29;;;;;;;11.23;4.68;;;9.70;99.90;;;;;;5072445;28;20060;-63
2022/11/06 00:03:54;;;;;;;9.20;4.43;;;9.70;99.90;;;;;;5062573;28;20489;-63
2022/11/06 00:09:07;;;;;;;8.55;4.25;;;9.60;99.90;;;;;;5072408;28;20126;-63
2022/11/06 00:11:32;;;;;;;11.85;5.20;;;9.60;99.90;;;;;;5071751;28;20032;-63
2022/11/06 00:13:59;;;;;;;10.35;4.20;;;9.60;99.90;;;;;;5072107;28;20029;-63
2022/11/06 00:16:25;;;;;;;8.63;4.00;;;9.60;99.90;;;;;;5071936;28;20044;-63
2022/11/06 00:18:51;;;;;;;12.13;4.30;;;9.60;99.90;;;;;;5058951;28;20021;-63
2022/11/06 00:21:22;;;;;;;8.70;4.43;;;9.60;99.90;;;;;;5070679;28;20369;-63
2022/11/06 00:23:49;;;;;;;8.20;4.38;;;9.60;99.90;;;;;;5070916;28;20029;-63
2022/11/06 00:26:18;;;;;;;8.10;4.15;;;9.60;99.90;;;;;;5060071;28;20055;-63
2022/11/06 00:28:44;;;;;;;8.82;4.57;;;9.60;99.90;;;;;;5070972;28;20138;-63
2022/11/06 00:31:14;;;;;;;10.07;4.00;;;9.60;99.90;;;;;;5070870;28;20020;-63
2022/11/06 00:33:40;;;;;;;8.00;3.70;;;9.70;99.90;;;;;;5071487;28;20027;-63
2022/11/06 00:36:08;;;;;;;8.70;3.92;;;9.70;99.90;;;;;;5071692;28;20096;-63
2022/11/06 00:38:33;;;;;;;9.98;3.72;;;9.70;99.90;;;;;;5071623;28;20081;-63
2022/11/06 00:41:10;;;;;;;8.57;3.78;;;9.60;99.90;;;;;;5071898;28;20028;-63
2022/11/06 00:43:36;;;;;;;7.28;3.88;;;9.60;99.90;;;;;;5073901;28;20523;-63
2022/11/06 00:46:04;;;;;;;10.10;3.40;;;9.60;99.90;;;;;;5075476;28;20052;-63
2022/11/06 00:48:29;;;;;;;6.65;3.53;;;9.60;99.90;;;;;;5075532;28;20025;-63
2022/11/06 00:51:00;;;;;;;10.82;3.83;;;9.60;99.90;;;;;;5075490;28;20031;-63
2022/11/06 00:53:25;;;;;;;7.32;3.10;;;9.60;99.90;;;;;;5086917;28;20386;-63
2022/11/06 00:55:51;;;;;;;10.43;3.67;;;9.60;99.90;;;;;;5075596;28;20507;-63
2022/11/06 00:58:16;;;;;;;9.18;3.45;;;9.50;99.90;;;;;;5074253;28;20037;-63
2022/11/06 01:00:42;;;;;;;14.85;5.10;;;9.50;99.90;;;;;;5075221;28;20064;-63
2022/11/06 01:03:07;;;;;;;7.40;3.35;;;9.50;99.90;;;;;;5075243;28;20472;-63
2022/11/06 01:05:33;;;;;;;9.05;3.60;;;9.50;99.90;;;;;;5075214;28;20481;-63
2022/11/06 01:07:58;;;;;;;6.35;3.60;;;9.50;99.90;;;;;;5071192;28;20033;-63
2022/11/06 01:10:24;;;;;;;7.60;3.58;;;9.50;99.90;;;;;;5055312;28;20035;-63
2022/11/06 01:12:49;;;;;;;8.95;3.20;;;9.50;99.90;;;;;;5071266;28;20017;-63
2022/11/06 01:15:15;;;;;;;8.43;2.88;;;9.40;99.90;;;;;;5074968;28;20404;-63
2022/11/06 01:17:40;;;;;;;8.23;3.20;;;9.40;99.90;;;;;;5074965;28;20028;-63
2022/11/06 01:20:06;;;;;;;8.25;3.22;;;9.40;99.90;;;;;;5074800;28;20052;-63
2022/11/06 01:22:32;;;;;;;15.00;3.65;;;9.30;99.90;;;;;;5074453;28;20096;-63
2022/11/06 01:24:57;;;;;;;6.63;3.53;;;9.40;99.90;;;;;;5073374;28;20563;-63
2022/11/06 01:27:23;;;;;;;13.00;3.45;;;9.30;99.90;;;;;;5073504;28;20036;-63
2022/11/06 01:29:48;;;;;;;5.63;2.88;;;9.30;99.90;;;;;;5054923;28;20435;-63
2022/11/06 01:32:14;;;;;;;6.22;2.83;;;9.40;99.90;;;;;;5055968;28;20033;-63
2022/11/06 01:34:39;;;;;;;12.73;2.83;;;9.40;99.90;;;;;;5066724;28;20029;-63
2022/11/06 01:37:05;;;;;;;9.18;3.08;;;9.30;99.90;;;;;;5067774;28;20025;-63
2022/11/06 01:39:30;;;;;;;5.68;2.15;;;9.30;99.90;;;;;;5067663;28;20028;-63
2022/11/06 01:41:56;;;;;;;6.22;2.97;;;9.30;99.90;;;;;;5074570;28;20025;-63
2022/11/06 01:44:34;;;;;;;7.00;2.53;;;9.30;99.90;;;;;;5074243;28;20049;-63
2022/11/06 01:47:05;;;;;;;7.15;2.70;;;9.30;99.90;;;;;;5067822;28;20070;-63
2022/11/06 01:49:36;;;;;;;9.55;2.80;;;9.20;99.90;;;;;;5066520;28;20048;-63
2022/11/06 01:52:06;;;;;;;6.63;2.63;;;9.30;99.90;;;;;;5076763;28;20020;-63
2022/11/06 01:54:35;;;;;;;8.75;2.95;;;9.30;99.90;;;;;;5097929;28;20024;-63
2022/11/06 01:57:02;;;;;;;9.20;2.55;;;9.30;99.90;;;;;;5073650;28;20020;-63
2022/11/06 01:59:32;;;;;;;6.10;2.22;;;9.30;99.90;;;;;;5074190;28;20024;-63
2022/11/06 02:01:58;;;;;;;6.50;2.17;;;9.30;99.90;;;;;;5053405;28;20041;-63
2022/11/06 02:04:27;;;;;;;7.72;2.97;;;9.30;99.90;;;;;;5073713;28;20496;-63
2022/11/06 02:06:54;;;;;;;6.82;2.45;;;9.40;99.90;;;;;;5073740;28;20062;-63
2022/11/06 02:09:19;;;;;;;5.10;1.88;;;9.40;99.90;;;;;;5073981;28;20016;-63
2022/11/06 02:12:25;;;;;;;7.45;2.70;;;9.40;99.90;;;;;;5073671;28;20365;-63
2022/11/06 02:14:59;;;;;;;8.50;2.67;;;9.40;99.90;;;;;;5066974;28;20016;-63
2022/11/06 02:17:46;;;;;;;5.32;2.15;;;9.40;99.90;;;;;;5065486;28;20033;-63
2022/11/06 02:20:28;;;;;;;7.50;2.20;;;9.40;99.90;;;;;;5071123;28;20028;-63
2022/11/06 02:23:13;;;;;;;4.90;2.05;;;9.40;99.90;;;;;;5067370;28;20017;-63
2022/11/06 02:25:48;;;;;;;9.50;2.90;;;9.40;99.90;;;;;;5073851;28;20496;-63
2022/11/06 02:28:30;;;;;;;10.32;2.95;;;9.40;99.90;;;;;;5065913;28;20021;-63
2022/11/06 02:31:01;;;;;;;10.65;3.38;;;9.50;99.90;;;;;;5074172;28;20105;-63
2022/11/06 02:33:32;;;;;;;8.07;2.45;;;9.40;99.90;;;;;;5073868;28;20025;-63
2022/11/06 02:36:03;;;;;;;9.80;2.42;;;9.50;99.90;;;;;;5073184;28;20016;-63
2022/11/06 02:38:40;;;;;;;9.10;2.20;;;9.50;99.90;;;;;;5072246;28;20503;-63
2022/11/06 02:41:09;;;;;;;10.32;2.63;;;9.50;99.90;;;;;;5053814;28;20508;-63
2022/11/06 02:43:39;;;;;;;4.60;2.43;;;9.50;99.90;;;;;;5068109;28;20055;-63
2022/11/06 02:46:21;;;;;;;5.97;2.00;;;9.50;99.90;;;;;;5071946;28;20295;-63
2022/11/06 02:48:52;;;;;;;6.53;2.58;;;9.50;99.90;;;;;;5072872;28;20032;-63
2022/11/06 02:51:24;;;;;;;10.48;2.17;;;9.50;99.90;;;;;;5072878;28;20365;-63
2022/11/06 02:53:52;;;;;;;6.00;2.30;;;9.50;99.90;;;;;;5073283;28;20388;-63
2022/11/06 02:56:21;;;;;;;6.40;2.30;;;9.50;99.90;;;;;;5073139;28;20127;-63
2022/11/06 02:58:58;;;;;;;9.00;2.00;;;9.50;99.90;;;;;;5059974;28;20016;-63
2022/11/06 03:01:32;;;;;;;7.60;2.42;;;9.50;99.90;;;;;;5072772;28;20032;-63
2022/11/06 03:04:05;;;;;;;7.28;2.20;;;9.60;99.90;;;;;;5072475;28;20484;-63
2022/11/06 03:06:36;;;;;;;6.03;2.22;;;9.60;99.90;;;;;;5071298;28;20056;-63
2022/11/06 03:09:07;;;;;;;10.85;2.83;;;9.60;99.90;;;;;;5071407;28;20021;-63
2022/11/06 03:11:37;;;;;;;8.05;2.22;;;9.60;99.90;;;;;;5059747;28;20020;-63
2022/11/06 03:14:12;;;;;;;;;;;9.60;99.90;;;;;;5072074;28;20117;-63
2022/11/06 03:17:16;;;;;;;10.18;1.90;;;9.60;99.90;;;;;;5072647;28;20378;-63
2022/11/06 03:19:51;;;;;;;7.13;3.30;;;9.60;99.90;;;;;;5060834;28;20044;-63
2022/11/06 03:22:34;;;;;;;7.97;2.10;;;9.60;99.90;;;;;;5072378;28;20073;-63
2022/11/06 03:25:20;;;;;;;9.10;1.67;;;9.70;99.90;;;;;;5072534;28;20029;-63
2022/11/06 03:28:04;;;;;;;6.80;1.95;;;9.70;99.90;;;;;;5060740;28;20077;-63
2022/11/06 03:30:33;;;;;;;6.40;1.95;;;9.70;99.90;;;;;;5072485;28;20017;-63
2022/11/06 03:33:07;;;;;;;11.43;2.30;;;9.70;99.90;;;;;;5072326;28;20028;-63
2022/11/06 03:35:41;;;;;;;9.23;1.77;;;9.80;99.90;;;;;;5072551;28;20469;-63
2022/11/06 03:38:23;;;;;;;5.45;1.95;;;9.80;99.90;;;;;;5072317;28;20057;-63
2022/11/06 03:40:53;;;;;;;8.73;1.75;;;9.80;99.90;;;;;;5064088;28;20028;-63
2022/11/06 03:43:25;;;;;;;10.75;2.85;;;9.80;99.90;;;;;;5068059;28;20045;-63
2022/11/06 03:45:52;;;;;;;8.40;2.25;;;9.80;99.90;;;;;;5072443;28;20051;-63
2022/11/06 03:48:20;;;;;;;8.50;2.00;;;9.80;99.90;;;;;;5068354;28;20473;-63
2022/11/06 03:50:56;;;;;;;5.38;2.13;;;9.80;99.90;;;;;;5072257;28;20495;-63
2022/11/06 03:53:28;;;;;;;10.82;2.05;;;9.80;99.90;;;;;;5072745;28;20023;-63
2022/11/06 03:56:01;;;;;;;7.05;2.00;;;9.90;99.90;;;;;;5072366;28;20031;-63
2022/11/06 03:58:30;;;;;;;9.57;1.80;;;9.90;99.90;;;;;;5063925;28;20055;-63
2022/11/06 04:00:58;;;;;;;6.57;2.23;;;9.90;99.90;;;;;;5072069;28;20157;-63
2022/11/06 04:03:28;;;;;;;7.18;1.77;;;9.90;99.90;;;;;;5072252;28;20514;-63
2022/11/06 04:06:18;;;;;;;8.23;1.50;;;9.90;99.90;;;;;;5069899;28;20103;-63
2022/11/06 04:14:21;;;;;;;5.70;1.48;;;9.90;99.90;;;;;;5070711;28;20074;-63
2022/11/06 04:16:50;;;;;;;8.40;2.10;;;9.90;99.90;;;;;;5071939;28;20610;-63
2022/11/06 04:19:19;;;;;;;9.60;2.10;;;10.00;99.90;;;;;;5076065;28;20032;-63
2022/11/06 04:22:04;;;;;;;13.23;2.45;;;10.00;99.90;;;;;;5066880;28;20035;-63
2022/11/06 04:28:02;;;;;;;5.28;1.65;;;10.00;99.90;;;;;;5069765;28;20024;-63
2022/11/06 04:30:32;;;;;;;8.07;1.83;;;10.00;99.90;;;;;;5075814;28;20052;-63
2022/11/06 04:33:07;;;;;;;6.53;1.60;;;9.90;99.90;;;;;;5075687;28;20058;-63
2022/11/06 04:35:42;;;;;;;7.68;1.88;;;10.00;99.90;;;;;;5060633;28;20033;-63
2022/11/06 04:38:30;;;;;;;4.32;1.65;;;9.90;99.90;;;;;;5075344;28;20023;-63
2022/11/06 04:41:19;;;;;;;7.28;2.10;;;10.00;99.90;;;;;;5064717;28;20131;-63
2022/11/06 04:43:50;;;;;;;5.78;1.55;;;10.00;99.90;;;;;;5074880;28;20044;-63
2022/11/06 04:46:24;;;;;;;10.00;1.63;;;10.00;99.90;;;;;;5075397;28;20098;-63
2022/11/06 04:48:50;;;;;;;7.70;2.28;;;10.00;99.90;;;;;;5063168;28;20051;-63
2022/11/06 04:51:21;;;;;;;7.20;1.83;;;10.00;99.90;;;;;;5075265;28;20055;-63
2022/11/06 04:53:48;;;;;;;7.68;2.25;;;10.00;99.90;;;;;;5075428;28;20025;-63
2022/11/06 04:56:28;;;;;;;10.95;2.05;;;10.00;99.90;;;;;;5074543;28;20032;-63
2022/11/06 04:58:54;;;;;;;11.40;2.17;;;9.90;99.90;;;;;;5075641;28;20063;-63
2022/11/06 05:01:19;;;;;;;5.90;2.20;;;9.90;99.90;;;;;;5075121;28;20060;-63
2022/11/06 05:03:45;;;;;;;10.05;2.20;;;9.90;99.90;;;;;;5075301;28;20103;-63
2022/11/06 05:06:11;;;;;;;6.43;1.75;;;9.80;99.90;;;;;;5074237;28;20384;-63
2022/11/06 05:08:37;;;;;;;8.95;2.08;;;9.80;99.90;;;;;;5074995;28;20029;-63
2022/11/06 05:11:02;;;;;;;7.88;2.03;;;9.90;99.90;;;;;;5074541;28;20096;-63
2022/11/06 05:13:28;;;;;;;7.72;3.17;;;9.80;99.90;;;;;;5075027;28;20036;-63
2022/11/06 05:15:58;;;;;;;8.10;2.38;;;9.80;99.90;;;;;;5074809;28;20526;-63
2022/11/06 05:18:25;;;;;;;5.97;1.60;;;9.80;99.90;;;;;;5074869;28;20426;-63
2022/11/06 05:22:56;;;;;;;7.93;1.98;;;9.70;99.90;;;;;;5074137;28;20146;-63
2022/11/06 05:23:40;;;;;;;9.07;2.20;;;9.70;99.90;;;;;;5074507;28;20097;-63
2022/11/06 05:26:06;;;;;;;6.55;2.05;;;9.70;99.90;;;;;;5074944;28;20465;-63
2022/11/06 05:28:32;;;;;;;9.43;1.95;;;9.70;99.90;;;;;;5073448;28;20507;-63
2022/11/06 05:30:58;;;;;;;4.53;1.80;;;9.60;99.90;;;;;;5074945;28;20017;-63
2022/11/06 05:33:23;;;;;;;8.55;2.50;;;9.60;99.90;;;;;;5073374;28;20358;-63
2022/11/06 05:35:50;;;;;;;10.27;2.25;;;9.60;99.90;;;;;;5062926;28;20041;-63
2022/11/06 05:38:15;;;;;;;8.40;1.92;;;9.60;99.90;;;;;;5073401;28;20037;-63
2022/11/06 05:40:41;;;;;;;7.65;2.05;;;9.60;99.90;;;;;;5090210;28;20522;-63
2022/11/06 05:43:07;;;;;;;9.32;3.08;;;9.70;99.90;;;;;;5074070;28;20044;-63
2022/11/06 05:45:32;;;;;;;12.50;2.15;;;9.70;99.90;;;;;;5074730;28;20029;-63
2022/11/06 05:47:58;;;;;;;8.48;2.00;;;9.70;99.90;;;;;;5073981;28;20032;-63
2022/11/06 05:50:23;;;;;;;7.90;2.20;;;9.80;99.90;;;;;;5074222;28;20020;-63
2022/11/06 05:52:49;;;;;;;5.88;1.90;;;9.80;99.90;;;;;;5073048;28;20035;-63
2022/11/06 05:55:15;;;;;;;10.85;2.15;;;9.80;99.90;;;;;;5074459;28;20477;-63
2022/11/06 05:57:40;;;;;;;5.57;1.70;;;9.80;99.90;;;;;;5072387;28;20060;-63
2022/11/06 06:00:07;;;;;;;14.35;3.63;;;9.80;99.90;;;;;;5074187;28;20052;-63
2022/11/06 06:02:32;;;;;;;6.45;1.80;;;9.90;99.90;;;;;;5073384;28;20458;-63
2022/11/06 06:04:58;;;;;;;7.18;2.05;;;9.90;99.90;;;;;;5073793;28;20528;-63
2022/11/06 06:07:23;;;;;;;5.22;1.80;;;9.90;99.90;;;;;;5074216;28;20081;-63
2022/11/06 06:09:49;;;;;;;9.77;1.95;;;9.90;99.90;;;;;;5072282;28;20029;-63
2022/11/06 06:12:14;;;;;;;5.28;2.47;;;9.90;99.90;;;;;;5068556;28;20040;-63
2022/11/06 06:14:40;;;;;;;7.03;1.95;;;9.90;99.90;;;;;;5072076;28;20017;-63
2022/11/06 06:17:05;;;;;;;11.05;2.85;;;9.90;99.90;;;;;;5072345;28;20067;-63
2022/11/06 06:19:31;;;;;;;7.28;2.00;;;9.90;99.90;;;;;;5071145;28;20151;-63
2022/11/06 06:21:57;;;;;;;6.03;2.00;;;9.90;99.90;;;;;;5065952;28;20545;-63
2022/11/06 06:24:22;;;;;;;4.07;2.08;;;9.90;99.90;;;;;;5080871;28;20544;-63
2022/11/06 06:26:48;;;;;;;5.00;1.77;;;9.90;99.90;;;;;;5054533;28;20158;-63
2022/11/06 06:29:13;;;;;;;7.50;2.08;;;9.90;99.90;;;;;;5054918;28;20524;-64
2022/11/06 06:31:39;;;;;;;8.88;1.98;;;9.90;99.90;;;;;;5052523;28;20017;-64
2022/11/06 06:34:04;;;;;;;6.30;1.60;;;9.90;99.90;;;;;;5052470;28;20028;-63
2022/11/06 06:36:30;;;;;;;7.45;1.85;;;9.90;99.90;;;;;;5056000;28;20025;-63
2022/11/06 06:38:55;;;;;;;6.50;2.22;;;9.90;99.90;;;;;;5051830;28;20123;-63
2022/11/06 06:41:23;;;;;;;9.93;2.78;;;9.80;99.90;;;;;;5054538;28;20060;-63
2022/11/06 06:43:49;;;;;;;8.25;2.22;;;9.80;99.90;;;;;;5057239;28;20052;-63
2022/11/06 06:46:15;;;;;;;10.27;2.30;;;9.80;99.90;;;;;;5083321;28;20358;-63
2022/11/06 06:48:40;;;;;;;10.18;2.50;;;9.80;99.90;;;;;;5052525;28;20357;-63
2022/11/06 06:51:09;;;;;;;8.95;2.55;;;9.70;99.90;;;;;;5054974;28;20028;-63
2022/11/06 06:53:35;;;;;;;9.32;2.97;;;9.80;99.90;;;;;;5050941;28;20412;-63
2022/11/06 06:56:01;;;;;;;7.43;1.92;;;9.70;99.90;;;;;;5057909;28;20029;-63
2022/11/06 06:58:28;;;;;;;6.85;1.88;;;9.80;99.90;;;;;;5055032;28;20040;-63
2022/11/06 07:00:54;;;;;;;6.82;2.03;;;9.80;99.90;;;;;;5054921;28;20025;-63
2022/11/06 07:03:19;;;;;;;6.40;1.75;;;9.70;99.90;;;;;;5068939;28;20024;-63
2022/11/06 07:05:46;;;;;;;11.02;2.42;;;9.80;99.90;;;;;;5064536;28;20408;-63
2022/11/06 07:08:11;;;;;;;11.00;2.88;;;9.80;99.90;;;;;;5066672;28;20020;-63
2022/11/06 07:10:37;;;;;;;5.28;2.22;;;9.80;99.90;;;;;;5065457;28;20518;-63
2022/11/06 07:13:04;;;;;;;14.25;3.25;;;9.80;99.90;;;;;;5065808;28;20032;-63
2022/11/06 07:15:29;;;;;;;11.10;2.50;;;9.80;99.90;;;;;;5067453;28;20032;-63
2022/11/06 07:18:03;;;;;;;9.95;2.05;;;9.80;99.90;;;;;;5067246;28;20400;-63
2022/11/06 07:20:29;;;;;;;5.95;1.83;;;9.80;99.90;;;;;;5066136;28;20081;-63
2022/11/06 07:22:55;;;;;;;6.30;1.88;;;9.80;99.90;;;;;;5054793;28;20024;-63
2022/11/06 07:25:20;;;;;;;7.70;2.40;;;9.90;99.90;;;;;;5067186;28;20036;-63
2022/11/06 07:27:46;;;;;;;6.50;1.98;;;9.90;99.90;;;;;;5062268;28;20032;-63
2022/11/06 07:30:12;;;;;;;7.43;2.30;;;9.90;99.90;;;;;;5065971;28;20020;-62
2022/11/06 07:32:37;;;;;;;7.93;1.83;;;10.00;99.90;;;;;;5067190;28;20020;-63
2022/11/06 07:35:03;;;;;;;9.48;2.38;;;10.00;99.90;;;;;;5066055;28;20511;-63
2022/11/06 07:37:28;;;;;;;15.80;2.97;;;10.00;99.90;;;;;;5066100;28;20025;-63
2022/11/06 07:39:54;;;;;;;7.03;1.80;;;10.00;99.90;;;;;;5064444;28;20099;-63
2022/11/06 07:42:19;;;;;;;8.57;2.20;;;10.00;99.90;;;;;;5062879;28;20032;-63
2022/11/06 07:44:45;;;;;;;5.07;1.70;;;10.10;99.90;;;;;;5066463;28;20515;-63
2022/11/06 07:47:10;;;;;;;8.13;2.03;;;10.10;99.90;;;;;;5063042;28;20077;-63
2022/11/06 07:49:36;;;;;;;6.72;2.80;;;10.10;99.90;;;;;;5066206;28;20456;-63
2022/11/06 07:52:02;;;;;;;8.18;2.22;;;10.20;99.90;;;;;;5065150;28;20025;-63
2022/11/06 07:54:28;;;;;;;8.98;2.22;;;10.20;99.90;;;;;;5068058;28;20021;-63
2022/11/06 07:56:53;;;;;;;11.65;3.45;;;10.20;99.90;;;;;;5065281;28;20035;-63
2022/11/06 07:59:19;;;;;;;11.85;2.70;;;10.20;99.90;;;;;;5063671;28;20052;-63
2022/11/06 08:01:44;;;;;;;7.53;1.88;;;10.20;99.90;;;;;;5064497;28;20547;-63
2022/11/06 08:04:10;;;;;;;5.82;2.10;;;10.30;99.90;;;;;;5063554;28;20500;-63
2022/11/06 08:06:35;;;;;;;6.32;1.58;;;10.30;99.90;;;;;;5068399;28;20095;-63
2022/11/06 08:09:05;;;;;;;7.47;1.90;;;10.30;99.90;;;;;;5068055;28;20108;-62
2022/11/06 08:11:30;;;;;;;5.13;2.22;;;10.30;99.90;;;;;;5068237;28;20032;-63
2022/11/06 08:13:58;;;;;;;5.68;1.33;;;10.40;99.90;;;;;;5056471;28;20021;-63
2022/11/06 08:16:24;;;;;;;6.80;2.22;;;10.40;99.90;;;;;;5054708;28;20462;-63
2022/11/06 08:18:50;;;;;;;6.05;2.33;;;10.40;99.90;;;;;;5051313;28;20009;-63
2022/11/06 08:21:15;;;;;;;6.75;1.80;;;10.40;99.90;;;;;;5058345;28;20033;-63
2022/11/06 08:23:41;;;;;;;7.05;1.60;;;10.40;99.90;;;;;;5055101;28;20143;-63
2022/11/06 08:26:07;;;;;;;8.90;1.98;;;10.50;99.90;;;;;;5057446;28;20101;-62
2022/11/06 08:28:33;;;;;;;5.75;1.98;;;10.50;99.90;;;;;;5055594;28;20017;-63
2022/11/06 08:31:06;;;;;;;8.60;1.88;;;10.50;99.90;;;;;;5059325;28;20599;-63
2022/11/06 08:33:32;;;;;;;5.30;1.63;;;10.50;99.90;;;;;;5072948;28;20032;-63
2022/11/06 08:36:07;;;;;;;10.60;2.15;;;10.60;99.90;;;;;;5057188;28;21032;-63
2022/11/06 08:38:36;;;;;;;8.00;1.90;;;10.60;99.90;;;;;;5054377;28;20158;-63
2022/11/06 08:41:07;;;;;;;7.90;1.45;;;10.60;99.90;;;;;;5051226;28;20056;-63
2022/11/06 08:43:33;;;;;;;6.85;2.08;;;10.60;99.90;;;;;;5058315;28;20041;-63
2022/11/06 08:45:58;;;;;;;7.57;1.38;;;10.60;99.90;;;;;;5053838;28;20480;-63
2022/11/06 08:48:24;;;;;;;6.70;1.90;;;10.80;99.90;;;;;;5056416;28;20074;-62
2022/11/06 08:50:49;;;;;;;7.28;1.73;;;10.80;99.90;;;;;;5053712;28;20033;-62
2022/11/06 08:53:15;;;;;;;7.93;2.20;;;10.90;99.90;;;;;;5058089;28;20021;-63
2022/11/06 08:55:41;;;;;;;5.60;1.83;;;11.00;99.90;;;;;;5059298;28;20435;-63
2022/11/06 08:58:07;;;;;;;4.68;1.70;;;11.00;99.90;;;;;;5054877;28;20028;-63
2022/11/06 09:00:33;;;;;;;4.30;1.42;;;11.10;99.90;;;;;;5069458;28;20489;-63
2022/11/06 09:03:01;;;;;;;7.20;1.80;;;11.20;99.90;;;;;;5069863;28;20025;-63
2022/11/06 09:05:28;;;;;;;6.05;1.63;;;11.20;99.90;;;;;;5074063;28;20158;-63
2022/11/06 09:07:55;;;;;;;3.63;1.40;;;11.30;99.90;;;;;;5073702;28;20100;-63
2022/11/06 09:10:20;;;;;;;9.25;1.45;;;11.40;99.90;;;;;;5073957;28;20105;-63
2022/11/06 09:12:46;;;;;;;6.20;1.55;;;11.50;99.90;;;;;;5073835;28;20052;-63
2022/11/06 09:15:11;;;;;;;11.50;1.60;;;11.50;99.90;;;;;;5073792;28;20029;-63
2022/11/06 09:17:48;;;;;;;8.15;1.67;;;11.60;99.90;;;;;;5072960;28;20040;-63
2022/11/06 09:20:15;;;;;;;7.72;1.58;;;11.70;99.90;;;;;;5073388;28;20103;-63
2022/11/06 09:22:41;;;;;;;4.80;1.38;;;11.70;99.90;;;;;;5073658;28;20024;-63
2022/11/06 09:25:07;;;;;;;6.97;1.42;;;11.80;99.90;;;;;;5073007;28;20035;-63
2022/11/06 09:27:40;;;;;;;7.82;1.83;;;11.70;99.90;;;;;;5074487;28;20031;-63
2022/11/06 09:30:07;;;;;;;6.10;1.40;;;11.80;99.90;;;;;;5073238;28;20425;-63
2022/11/06 09:32:32;;;;;;;5.90;1.60;;;11.90;99.90;;;;;;5074321;28;20108;-63
2022/11/06 09:34:58;;;;;;;4.95;1.40;;;11.90;99.90;;;;;;5074092;28;20096;-63
2022/11/06 09:37:23;;;;;;;7.95;1.55;;;11.90;99.90;;;;;;5068122;28;20028;-63
2022/11/06 09:39:49;;;;;;;4.60;2.17;;;12.00;99.90;;;;;;5074647;28;20056;-63
2022/11/06 09:42:48;;;;;;;6.72;1.98;;;12.00;99.90;;;;;;5061276;28;20071;-63
2022/11/06 09:45:21;;;;;;;10.07;2.30;;;12.10;99.90;;;;;;5074715;28;20495;-63
2022/11/06 09:47:53;;;;;;;4.28;1.42;;;12.20;99.90;;;;;;5074436;28;20624;-63
2022/11/06 09:50:25;;;;;;;4.72;1.38;;;12.30;99.90;;;;;;5074470;28;20487;-63
2022/11/06 09:53:06;;;;;;;6.72;1.80;;;12.40;99.90;;;;;;5074550;28;20499;-63
2022/11/06 09:55:39;;;;;;;6.88;2.00;;;12.40;99.90;;;;;;5078881;28;20024;-63
2022/11/06 09:58:16;;;;;;;5.53;1.77;;;12.60;99.90;;;;;;5075917;28;20023;-63
2022/11/06 10:00:42;;;;;;;6.75;1.30;;;12.90;99.90;;;;;;5064866;28;20029;-63
2022/11/06 10:03:16;;;;;;;4.32;1.40;;;13.10;99.90;;;;;;5073385;28;20492;-63
2022/11/06 10:05:43;;;;;;;6.47;1.65;;;13.30;99.90;;;;;;5073760;28;20033;-63
2022/11/06 10:08:25;;;;;;;7.68;1.35;;;13.30;99.90;;;;;;5068872;28;20155;-63
2022/11/06 10:11:05;;;;;;;3.83;1.23;;;13.30;99.90;;;;;;5065432;28;20143;-63
2022/11/06 10:13:40;;;;;;;5.10;1.33;;;13.40;99.90;;;;;;5065386;28;20013;-63
2022/11/06 10:16:27;;;;;;;5.72;1.70;;;13.50;99.90;;;;;;5073495;28;20025;-63
2022/11/06 10:19:24;;;;;;;9.15;1.63;;;13.50;99.90;;;;;;5065404;28;20017;-63
2022/11/06 10:22:06;;;;;;;5.05;1.45;;;13.60;99.30;;;;;;5067626;28;20020;-63
2022/11/06 10:24:35;;;;;;;9.43;3.00;;;14.20;99.70;;;;;;5071011;28;20031;-63
2022/11/06 10:27:03;;;;;;;5.70;1.38;;;15.00;96.50;;;;;;5069416;28;20021;-63
2022/11/06 10:29:57;;;;;;;8.10;1.20;;;15.00;95.60;;;;;;5072036;28;20074;-63
2022/11/06 10:32:52;;;;;;;6.05;1.63;;;14.80;95.80;;;;;;5071706;28;20013;-63
2022/11/06 10:35:25;;;;;;;7.30;2.75;;;14.50;95.70;;;;;;5072238;28;20025;-63
2022/11/06 10:38:04;;;;;;;5.07;1.63;;;14.30;95.80;;;;;;5071480;28;20552;-63
2022/11/06 10:40:31;;;;;;;7.10;1.92;;;14.30;95.80;;;;;;5071588;28;20028;-63
2022/11/06 10:43:25;;;;;;;5.22;1.40;;;14.40;96.60;;;;;;5070592;28;20049;-63
2022/11/06 10:46:03;;;;;;;7.82;1.70;;;14.90;94.90;;;;;;5065869;28;20113;-63
2022/11/06 10:48:35;;;;;;;5.00;1.40;;;15.90;93.30;;;;;;5071199;28;20012;-63
2022/11/06 10:51:22;;;;;;;4.25;1.42;;;16.40;92.00;;;;;;5071344;28;20039;-63
2022/11/06 10:54:08;;;;;;;4.15;1.40;;;16.50;91.50;;;;;;5071762;28;20009;-63
2022/11/06 10:57:17;;;;;;;5.88;1.50;;;16.10;90.30;;;;;;5071531;28;20029;-63
2022/11/06 10:59:43;;;;;;;3.53;1.00;;;15.30;91.90;;;;;;5071796;28;20047;-63
2022/11/06 11:02:22;;;;;;;6.43;1.40;;;14.70;92.90;;;;;;5071434;28;20029;-63
2022/11/06 11:04:48;;;;;;;6.28;1.17;;;14.20;93.50;;;;;;5071317;28;20024;-63
2022/11/06 11:07:15;;;;;;;6.68;1.58;;;13.90;94.20;;;;;;5071603;28;20069;-63
2022/11/06 11:09:40;;;;;;;4.72;0.90;;;13.70;95.10;;;;;;5071426;28;20123;-63
2022/11/06 11:12:21;;;;;;;6.47;1.38;;;13.60;95.60;;;;;;5071267;28;20528;-63
2022/11/06 11:15:14;;;;;;;10.93;2.60;;;13.60;95.50;;;;;;5071150;28;20111;-63
2022/11/06 11:17:41;;;;;;;4.53;0.98;;;13.60;95.30;;;;;;5069117;28;20042;-63
2022/11/06 11:20:33;;;;;;;6.28;1.15;;;13.60;96.00;;;;;;5068637;28;20392;-63
2022/11/06 11:23:17;;;;;;;5.18;1.30;;;13.60;95.70;;;;;;5066111;28;20052;-63
2022/11/06 11:25:46;;;;;;;5.10;1.20;;;13.70;95.70;;;;;;5069846;28;20024;-63
2022/11/06 11:28:35;;;;;;;7.85;2.00;;;13.90;95.10;;;;;;5068347;28;20024;-63
2022/11/06 11:31:08;;;;;;;6.43;1.20;;;13.80;94.90;;;;;;5058206;28;20040;-63
2022/11/06 11:33:34;;;;;;;9.30;1.33;;;13.80;95.10;;;;;;5077809;28;20476;-63
2022/11/06 11:36:02;;;;;;;7.65;1.48;;;14.20;94.80;;;;;;5072282;28;20032;-63
2022/11/06 11:38:28;;;;;;;6.80;1.40;;;15.00;93.60;;;;;;5070782;28;20198;-63
2022/11/06 11:41:06;;;;;;;3.78;0.90;;;15.70;92.50;;;;;;5072528;28;20099;-63
2022/11/06 11:43:32;;;;;;;4.90;0.90;;;16.90;91.20;;;;;;5071484;28;20048;-63
2022/11/06 11:46:09;;;;;;;3.67;1.00;;;17.90;85.30;;;;;;5070495;28;20037;-63
2022/11/06 11:48:42;;;;;;;5.57;0.98;;;18.10;79.70;;;;;;5071402;28;20141;-63
2022/11/06 11:51:23;;;;;;;3.92;0.85;;;17.10;80.70;;;;;;5071030;28;20031;-63
2022/11/06 11:53:49;;;;;;;4.53;1.13;;;16.20;85.30;;;;;;5060420;28;20055;-63
2022/11/06 11:56:18;;;;;;;5.32;1.10;;;15.40;85.00;;;;;;5070980;28;20029;-64
2022/11/06 11:58:53;;;;;;;5.30;0.82;;;15.00;87.80;;;;;;5072390;28;20087;-63
2022/11/06 12:01:32;;;;;;;4.60;1.80;;;15.30;88.50;;;;;;5070871;28;20023;-63
2022/11/06 12:03:59;;;;;;;4.13;0.90;;;15.10;87.30;;;;;;5071467;28;20052;-63
2022/11/06 12:06:24;;;;;;;5.72;1.00;;;14.90;88.20;;;;;;5072223;28;20029;-63
2022/11/06 12:08:54;;;;;;;6.63;1.38;;;14.60;89.60;;;;;;5071055;28;20441;-63
2022/11/06 12:11:28;;;;;;;8.23;1.00;;;14.30;89.50;;;;;;5072122;28;20031;-63
2022/11/06 12:14:29;;;;;;;7.55;1.40;;;14.10;90.80;;;;;;5071464;28;20082;-63
2022/11/06 12:17:20;;;;;;;5.97;1.00;;;14.00;91.20;;;;;;5070731;28;20016;-63
2022/11/06 12:19:52;;;;;;;4.55;1.00;;;13.70;90.90;;;;;;5051532;28;20115;-63
2022/11/06 12:22:24;;;;;;;4.72;0.90;;;13.50;91.20;;;;;;5068468;28;20108;-63
2022/11/06 12:24:58;;;;;;;4.45;1.00;;;13.40;91.20;;;;;;5061840;28;20028;-63
2022/11/06 12:27:31;;;;;;;3.58;0.90;;;13.30;91.80;;;;;;5071067;28;20364;-63
2022/11/06 12:30:06;;;;;;;5.30;1.05;;;13.30;92.10;;;;;;5072378;28;20031;-63
2022/11/06 12:32:48;;;;;;;4.07;0.80;;;13.30;92.00;;;;;;5070962;28;20028;-63
2022/11/06 12:35:22;;;;;;;4.55;1.40;;;13.20;92.20;;;;;;5075640;28;20054;-63
2022/11/06 12:38:02;;;;;;;2.40;0.70;;;13.10;92.50;;;;;;5070374;28;20101;-63
2022/11/06 12:40:52;;;;;;;4.18;0.98;;;13.00;92.80;;;;;;5079254;28;20025;-63
2022/11/06 12:43:33;;;;;;;4.32;0.60;;;13.00;92.70;;;;;;5076518;28;20049;-63
2022/11/06 12:46:24;;;;;;;4.32;0.80;;;13.00;92.60;;;;;;5090444;28;20028;-63
2022/11/06 12:49:36;;;;;;;4.93;0.90;;;13.00;93.00;;;;;;5073266;28;20507;-63
2022/11/06 12:52:21;;;;;;;4.38;0.70;;;12.90;92.50;;;;;;5067088;28;20024;-63
2022/11/06 12:54:58;;;;;;;4.75;1.77;;;12.90;92.50;;;;;;5095272;28;20032;-63
2022/11/06 12:57:56;;;;;;;4.97;0.85;;;12.90;92.40;;;;;;5077829;28;20020;-63
2022/11/06 13:00:28;;;;;;;5.07;0.90;;;12.90;92.20;;;;;;5057440;28;20481;-63
2022/11/06 13:03:11;;;;;;;6.43;0.95;;;12.80;92.50;;;;;;5097160;28;20477;-63
2022/11/06 13:06:05;;;;;;;5.18;0.80;;;12.80;92.70;;;;;;5083459;28;20017;-63
2022/11/06 13:08:44;;;;;;;5.25;0.73;;;12.80;92.70;;;;;;5071467;28;20112;-63
2022/11/06 13:12:01;;;;;;;4.72;1.10;;;12.80;92.80;;;;;;5073094;28;20380;-63
2022/11/06 13:14:44;;;;;;;3.85;0.80;;;12.80;92.90;;;;;;5045883;28;20048;-63
2022/11/06 13:17:34;;;;;;;3.38;1.00;;;12.70;92.50;;;;;;5069177;28;20510;-63
2022/11/06 13:20:19;;;;;;;5.25;0.95;;;12.80;92.90;;;;;;5073043;28;20121;-63
2022/11/06 13:23:02;;;;;;;4.15;0.73;;;12.80;92.90;;;;;;5073756;28;20464;-63
2022/11/06 13:25:44;;;;;;;2.78;0.93;;;12.80;92.80;;;;;;5065017;28;20104;-63